ADDS METAR Data INFO
IDs: Format: Raw Decoded Include TAF

Data at: 2202 UTC 24 Feb 2018

K4O4 242155Z AUTO 26007KT 10SM SCT017 SCT075 12/11 A2983 RMK AO2
K4O4 242135Z AUTO 26008KT 10SM SCT009 SCT075 12/11 A2982 RMK AO2
K4O4 242115Z AUTO 29009KT 10SM SCT065 12/11 A2980 RMK AO2
K4O4 242055Z AUTO 28009KT 10SM 11/11 A2980 RMK AO2
K4O4 241835Z AUTO 19025G33KT 10SM BKN023 BKN028 OVC033 20/18 A2970 RMK AO2
K4O4 241815Z AUTO 18022G28KT 10SM BKN021 OVC026 19/18 A2973 RMK AO2
K4O4 241755Z AUTO 18017G26KT 10SM BKN014 OVC020 19/18 A2975 RMK AO2
K4O4 241735Z AUTO 18019G28KT 10SM BKN012 OVC017 19/18 A2977 RMK AO2
K4O4 241715Z AUTO 18019G26KT 10SM BKN010 OVC017 19/18 A2978 RMK AO2
K4O4 241655Z AUTO 19013G24KT 10SM OVC010 18/17 A2976 RMK AO2 P0003
K4O4 241635Z AUTO 16021G27KT 5SM BKN005 OVC010 18/17 A2978 RMK AO2 P0003
K4O4 241615Z AUTO 16012KT 5SM OVC005 17/17 A2980 RMK AO2 P0001
K4O4 241555Z AUTO 16013KT 5SM BKN005 OVC010 17/17 A2982 RMK AO2 P0015
K4O4 241535Z AUTO 16009KT 2 1/2SM OVC003 17/17 A2984 RMK AO2 P0012
K4O4 241515Z AUTO 15007KT 2SM OVC003 17/16 A2985 RMK AO2 P0003
K4O4 241455Z AUTO 11004KT 1/2SM OVC003 16/16 A2986 RMK AO2 P0001
K4O4 241435Z AUTO 10005KT 3/4SM OVC003 16/15 A2987 RMK AO2
K4O4 241415Z AUTO 11004KT 1/2SM OVC003 15/15 A2988 RMK AO2
K4O4 241355Z AUTO 00000KT 1/2SM OVC003 14/13 A2990 RMK AO2 P0001
K4O4 241335Z AUTO 00000KT 1/2SM OVC003 14/13 A2991 RMK AO2 P0001
K4O4 241315Z AUTO 13004KT 1/2SM OVC003 13/13 A2991 RMK AO2
K4O4 241255Z AUTO 00000KT 1SM OVC003 13/13 A2993 RMK AO2
K4O4 241235Z AUTO 00000KT 1 3/4SM OVC003 13/13 A2992 RMK AO2
K4O4 241215Z AUTO 09003KT 4SM OVC005 13/12 A2992 RMK AO2
K4O4 241155Z AUTO 00000KT 5SM OVC005 13/12 A2994 RMK AO2
K4O4 241135Z AUTO 00000KT 7SM OVC003 13/12 A2995 RMK AO2
K4O4 241115Z AUTO 31003KT 2SM OVC003 13/13 A2995 RMK AO2
K4O4 241055Z AUTO 31004KT 5SM OVC003 13/13 A2995 RMK AO2
K4O4 241035Z AUTO 26003KT 3SM OVC003 15/14 A2996 RMK AO2
K4O4 241015Z AUTO 25006KT 1SM OVC003 16/15 A2994 RMK AO2
K4O4 240955Z AUTO 20005KT 1 3/4SM OVC003 16/15 A2995 RMK AO2
K4O4 240935Z AUTO 19007KT 1 3/4SM OVC005 16/15 A2995 RMK AO2
K4O4 240915Z AUTO 17006KT 2 1/2SM SCT002 OVC005 16/15 A2994 RMK AO2
K4O4 240855Z AUTO 20003KT 2 1/2SM BKN002 OVC007 15/15 A2996 RMK AO2
K4O4 240835Z AUTO 21005KT 4SM SCT002 OVC009 16/15 A2997 RMK AO2
K4O4 240815Z AUTO 17006KT 4SM BKN002 OVC009 16/15 A2996 RMK AO2
K4O4 240755Z AUTO 16005KT 5SM OVC004 16/15 A2997 RMK AO2
K4O4 240735Z AUTO 16006KT 5SM OVC004 16/15 A2997 RMK AO2
K4O4 240715Z AUTO 15006KT 7SM OVC004 16/15 A2998 RMK AO2
K4O4 240655Z AUTO 14008KT 7SM OVC004 16/15 A2998 RMK AO2
K4O4 240635Z AUTO 14008KT 5SM OVC004 16/15 A2998 RMK AO2
K4O4 240615Z AUTO 14011G16KT 4SM OVC002 15/15 A2999 RMK AO2
K4O4 240555Z AUTO 13011G16KT 3SM OVC002 15/15 A2999 RMK AO2
K4O4 240535Z AUTO 13009KT 1 1/4SM OVC002 15/14 A3000 RMK AO2
K4O4 240515Z AUTO 12010KT 1SM OVC002 15/14 A3001 RMK AO2
K4O4 240455Z AUTO 12013KT 3/4SM OVC002 15/14 A3001 RMK AO2
K4O4 240435Z AUTO 12011KT 1SM OVC002 15/14 A3001 RMK AO2
K4O4 240415Z AUTO 11009KT 1SM OVC002 15/13 A3002 RMK AO2
K4O4 240355Z AUTO 12009KT 1 1/4SM OVC002 15/13 A3003 RMK AO2
K4O4 240335Z AUTO 12008KT 2 1/2SM OVC004 15/13 A3004 RMK AO2
K4O4 240315Z AUTO 11008KT 5SM OVC004 14/13 A3004 RMK AO2
K4O4 240255Z AUTO 11008KT 7SM OVC004 14/13 A3005 RMK AO2
K4O4 240235Z AUTO 11010KT 7SM OVC004 14/13 A3005 RMK AO2
K4O4 240215Z AUTO 10009KT 7SM OVC004 14/13 A3005 RMK AO2
K4O4 240155Z AUTO 11009KT 7SM OVC004 14/13 A3006 RMK AO2
K4O4 240135Z AUTO 11010KT 7SM OVC004 14/13 A3006 RMK AO2
K4O4 240115Z AUTO 11010KT 5SM OVC004 14/13 A3006 RMK AO2
K4O4 240055Z AUTO 10009KT 5SM OVC002 14/13 A3007 RMK AO2
K4O4 240035Z AUTO 10007KT 3SM OVC002 14/13 A3007 RMK AO2
K4O4 240015Z AUTO 10005KT 1 1/2SM OVC002 14/13 A3007 RMK AO2
K4O4 232355Z AUTO 09006KT 1/2SM OVC002 14/13 A3008 RMK AO2
K4O4 232335Z AUTO 09006KT 1/2SM OVC002 13/13 A3008 RMK AO2
K4O4 232315Z AUTO 06004KT 1/2SM OVC003 13/12 A3009 RMK AO2
K4O4 232255Z AUTO 00000KT 1/2SM OVC003 12/12 A3010 RMK AO2
K4O4 232235Z AUTO 00000KT 1/2SM OVC003 12/12 A3010 RMK AO2
K4O4 232215Z AUTO 00000KT 3/4SM OVC003 13/12 A3010 RMK AO2
K4O4 232155Z AUTO 00000KT 1SM OVC003 13/12 A3011 RMK AO2
K4O4 232135Z AUTO 00000KT 1 3/4SM OVC003 13/12 A3011 RMK AO2
K4O4 232115Z AUTO 11009G14KT 3SM OVC003 13/12 A3011 RMK AO2
K4O4 232055Z AUTO 11011KT 2 1/2SM OVC003 13/12 A3011 RMK AO2
K4O4 232035Z AUTO 12011KT 2SM OVC003 12/12 A3012 RMK AO2
K4O4 232015Z AUTO 12012KT 2SM OVC004 12/12 RMK AO2
K4O4 231955Z AUTO 11010KT 2 1/2SM BKN004 OVC012 12/11 A3014 RMK AO2 P0001
K4O4 231935Z AUTO 12007KT 7SM SCT004 OVC012 12/11 A3015 RMK AO2 P0001
K4O4 231915Z AUTO 12007KT 11/11 A3016 RMK AO2
K4O4 231855Z AUTO 11007KT 7SM 11/11 A3017 RMK AO2
K4O4 231835Z AUTO 11005KT 10/10 RMK AO2
K4O4 231815Z AUTO 11005KT 10SM 10/10 A3019 RMK AO2
K4O4 231755Z AUTO 10006KT 10SM OVC004 10/09 A3019 RMK AO2
K4O4 231735Z AUTO 09007KT 10SM OVC004 10/09 A3020 RMK AO2
K4O4 231715Z AUTO 09008KT 10SM OVC004 09/08 A3020 RMK AO2
K4O4 231655Z AUTO 09006KT 5SM OVC004 09/08 A3021 RMK AO2
K4O4 231635Z AUTO 09005KT 10SM OVC004 08/08 A3022 RMK AO2
K4O4 231615Z AUTO 08007KT 10SM OVC004 08/08 A3023 RMK AO2
K4O4 231555Z AUTO 07004KT 7SM SCT002 BKN007 OVC031 08/08 A3023 RMK AO2 P0007
K4O4 231535Z AUTO 10007KT 4SM BKN006 BKN012 BKN033 08/07 A3024 RMK AO2 P0007
K4O4 231515Z AUTO 00000KT 2 1/2SM BKN006 OVC011 08/07 A3026 RMK AO2 P0004
K4O4 231455Z AUTO 09003KT 2SM BKN004 OVC011 08/07 A3026 RMK AO2 P0021
K4O4 231435Z AUTO 00000KT 1 1/2SM BKN004 OVC010 07/07 A3026 RMK AO2 P0013
K4O4 231415Z AUTO 00000KT 4SM SCT004 SCT010 BKN014 07/07 A3025 RMK AO2 P0002
K4O4 231355Z AUTO 11004KT 1 1/2SM BKN004 OVC010 07/07 A3025 RMK AO2 P0010
K4O4 231335Z AUTO 00000KT 4SM BKN002 BKN014 OVC031 07/07 A3024 RMK AO2 P0002
K4O4 231315Z AUTO 00000KT 7SM OVC002 07/07 A3025 RMK AO2
K4O4 231255Z AUTO 00000KT 10SM BKN002 BKN037 BKN080 07/07 A3025 RMK AO2 P0003
K4O4 231235Z AUTO 00000KT 10SM BKN002 BKN080 07/07 A3023 RMK AO2 P0003
K4O4 231215Z AUTO 10004KT 7SM BKN002 07/07 A3023 RMK AO2 P0003
K4O4 231155Z AUTO 00000KT 7SM SCT004 BKN008 07/06 A3025 RMK AO2 P0011
K4O4 231135Z AUTO 27005KT 5SM SCT004 BKN010 BKN018 07/06 A3027 RMK AO2 P0009
K4O4 231115Z AUTO 00000KT 4SM BKN004 BKN008 BKN018 07/06 A3026 RMK AO2 P0004
K4O4 231055Z AUTO 00000KT 3SM OVC002 07/06 A3025 RMK AO2 P0008
K4O4 231035Z AUTO 00000KT 5SM BKN002 BKN022 07/06 A3021 RMK AO2 P0003
K4O4 231015Z AUTO 00000KT 7SM BKN002 BKN022 07/06 A3022 RMK AO2